ESGG/GOT METAR and TAF weather

Enter ICAO airport designator
Station Type Date Time Source
ESGG METAR 2019/02/23 22:50 UTC NOAA

ESGG 232250Z 22009KT CAVOK 01/M00 Q1035 R21/19//95


Station Type Date Time Source
ESGG Decoded METAR 2019/02/23 22:50 UTC NOAA

Goteborg / Landvetter, Sweden (ESGG) 57-40N 012-18E
Feb 23, 2019 - 05:50 PM EST / 2019.02.23 2250 UTC
Wind: from the SW (220 degrees) at 10 MPH (9 KT):0
Visibility: greater than 7 mile(s):0
Temperature: 33 F (1 C)
Windchill: 24 F (-4 C):1
Dew Point: 32 F (0 C)
Relative Humidity: 93%
Pressure (altimeter): 30.56 in. Hg (1035 hPa)
ob: ESGG 232250Z 22009KT CAVOK 01/M00 Q1035 R21/19//95
cycle: 23

Station Type Date Time Source
ESGG TAF 2019/02/23 18:33 UTC NOAA

TAF TAF ESGG 231730Z 2318/2418 22007KT 9999 FEW010 PROB40 2318/2406 4000 BR BKN008
BECMG 2406/2408 3000 BR OVC003


Example: see airport list